sensor_id;sensor_type;location;lat;lon;timestamp;P1;durP1;ratioP1;P2;durP2;ratioP2
68792;SDS011;55778;54.346;10.210;2022-12-29T00:02:21;4.03;;;2.45;;
68792;SDS011;55778;54.346;10.210;2022-12-29T00:04:48;5.80;;;2.97;;
68792;SDS011;55778;54.346;10.210;2022-12-29T00:07:15;4.40;;;3.17;;
68792;SDS011;55778;54.346;10.210;2022-12-29T00:09:40;3.95;;;3.17;;
68792;SDS011;55778;54.346;10.210;2022-12-29T00:12:06;4.53;;;3.53;;
68792;SDS011;55778;54.346;10.210;2022-12-29T00:14:31;7.15;;;4.30;;
68792;SDS011;55778;54.346;10.210;2022-12-29T00:17:15;8.55;;;4.57;;
68792;SDS011;55778;54.346;10.210;2022-12-29T00:19:40;7.32;;;3.40;;
68792;SDS011;55778;54.346;10.210;2022-12-29T00:22:24;6.47;;;4.57;;
68792;SDS011;55778;54.346;10.210;2022-12-29T00:25:10;5.03;;;4.18;;
68792;SDS011;55778;54.346;10.210;2022-12-29T00:27:55;7.15;;;4.25;;
68792;SDS011;55778;54.346;10.210;2022-12-29T00:30:39;10.40;;;5.20;;
68792;SDS011;55778;54.346;10.210;2022-12-29T00:33:25;7.45;;;5.40;;
68792;SDS011;55778;54.346;10.210;2022-12-29T00:36:16;9.65;;;5.80;;
68792;SDS011;55778;54.346;10.210;2022-12-29T00:39:09;6.57;;;4.18;;
68792;SDS011;55778;54.346;10.210;2022-12-29T00:42:02;8.18;;;5.00;;
68792;SDS011;55778;54.346;10.210;2022-12-29T00:44:47;6.57;;;4.65;;
68792;SDS011;55778;54.346;10.210;2022-12-29T00:47:13;9.15;;;4.47;;
68792;SDS011;55778;54.346;10.210;2022-12-29T00:49:38;9.18;;;5.38;;
68792;SDS011;55778;54.346;10.210;2022-12-29T00:52:05;7.60;;;4.55;;
68792;SDS011;55778;54.346;10.210;2022-12-29T00:54:33;10.23;;;4.73;;
68792;SDS011;55778;54.346;10.210;2022-12-29T00:57:00;6.88;;;4.75;;
68792;SDS011;55778;54.346;10.210;2022-12-29T00:59:26;7.80;;;5.13;;
68792;SDS011;55778;54.346;10.210;2022-12-29T01:01:52;6.60;;;4.68;;
68792;SDS011;55778;54.346;10.210;2022-12-29T01:04:20;9.60;;;5.50;;
68792;SDS011;55778;54.346;10.210;2022-12-29T01:06:46;10.20;;;5.57;;
68792;SDS011;55778;54.346;10.210;2022-12-29T01:09:12;10.93;;;5.72;;
68792;SDS011;55778;54.346;10.210;2022-12-29T01:11:56;10.38;;;6.15;;
68792;SDS011;55778;54.346;10.210;2022-12-29T01:14:22;8.07;;;5.10;;
68792;SDS011;55778;54.346;10.210;2022-12-29T01:16:48;8.75;;;6.63;;
68792;SDS011;55778;54.346;10.210;2022-12-29T01:19:14;6.75;;;4.43;;
68792;SDS011;55778;54.346;10.210;2022-12-29T01:21:40;8.60;;;5.75;;
68792;SDS011;55778;54.346;10.210;2022-12-29T01:24:05;9.93;;;7.25;;
68792;SDS011;55778;54.346;10.210;2022-12-29T01:26:31;10.00;;;5.68;;
68792;SDS011;55778;54.346;10.210;2022-12-29T01:28:56;11.38;;;7.20;;
68792;SDS011;55778;54.346;10.210;2022-12-29T01:31:22;10.82;;;5.25;;
68792;SDS011;55778;54.346;10.210;2022-12-29T01:33:47;9.35;;;5.88;;
68792;SDS011;55778;54.346;10.210;2022-12-29T01:36:13;12.95;;;6.78;;
68792;SDS011;55778;54.346;10.210;2022-12-29T01:38:40;9.38;;;5.85;;
68792;SDS011;55778;54.346;10.210;2022-12-29T01:41:06;9.15;;;5.90;;
68792;SDS011;55778;54.346;10.210;2022-12-29T01:43:40;9.40;;;5.68;;
68792;SDS011;55778;54.346;10.210;2022-12-29T01:46:14;9.27;;;5.50;;
68792;SDS011;55778;54.346;10.210;2022-12-29T01:48:41;7.40;;;4.82;;
68792;SDS011;55778;54.346;10.210;2022-12-29T01:51:08;8.60;;;5.03;;
68792;SDS011;55778;54.346;10.210;2022-12-29T01:53:34;9.93;;;6.03;;
68792;SDS011;55778;54.346;10.210;2022-12-29T01:56:02;9.80;;;5.93;;
68792;SDS011;55778;54.346;10.210;2022-12-29T01:58:32;11.10;;;6.85;;
68792;SDS011;55778;54.346;10.210;2022-12-29T02:01:01;12.23;;;6.68;;
68792;SDS011;55778;54.346;10.210;2022-12-29T02:03:27;8.77;;;5.20;;
68792;SDS011;55778;54.346;10.210;2022-12-29T02:06:08;11.15;;;6.43;;
68792;SDS011;55778;54.346;10.210;2022-12-29T02:08:38;10.77;;;7.03;;
68792;SDS011;55778;54.346;10.210;2022-12-29T02:11:04;9.20;;;4.80;;
68792;SDS011;55778;54.346;10.210;2022-12-29T02:13:30;9.82;;;6.50;;
68792;SDS011;55778;54.346;10.210;2022-12-29T02:21:56;11.65;;;6.15;;
68792;SDS011;55778;54.346;10.210;2022-12-29T02:27:29;11.75;;;5.35;;
68792;SDS011;55778;54.346;10.210;2022-12-29T02:32:54;10.18;;;6.13;;
68792;SDS011;55778;54.346;10.210;2022-12-29T02:38:11;7.63;;;5.95;;
68792;SDS011;55778;54.346;10.210;2022-12-29T02:43:24;9.68;;;5.60;;
68792;SDS011;55778;54.346;10.210;2022-12-29T02:46:00;11.95;;;6.90;;
68792;SDS011;55778;54.346;10.210;2022-12-29T02:48:37;9.52;;;6.00;;
68792;SDS011;55778;54.346;10.210;2022-12-29T02:51:09;12.73;;;6.53;;
68792;SDS011;55778;54.346;10.210;2022-12-29T02:53:45;11.85;;;7.13;;
68792;SDS011;55778;54.346;10.210;2022-12-29T02:56:29;10.00;;;6.38;;
68792;SDS011;55778;54.346;10.210;2022-12-29T02:58:55;11.27;;;6.35;;
68792;SDS011;55778;54.346;10.210;2022-12-29T03:12:30;6.25;;;4.05;;
68792;SDS011;55778;54.346;10.210;2022-12-29T03:15:23;10.27;;;6.40;;
68792;SDS011;55778;54.346;10.210;2022-12-29T03:18:15;10.23;;;5.55;;
68792;SDS011;55778;54.346;10.210;2022-12-29T03:23:22;10.68;;;6.03;;
68792;SDS011;55778;54.346;10.210;2022-12-29T03:25:53;10.18;;;6.20;;
68792;SDS011;55778;54.346;10.210;2022-12-29T03:28:34;10.55;;;5.70;;
68792;SDS011;55778;54.346;10.210;2022-12-29T03:31:03;10.18;;;5.95;;
68792;SDS011;55778;54.346;10.210;2022-12-29T03:33:31;11.32;;;6.60;;
68792;SDS011;55778;54.346;10.210;2022-12-29T03:36:00;9.35;;;5.32;;
68792;SDS011;55778;54.346;10.210;2022-12-29T03:38:33;11.40;;;6.30;;
68792;SDS011;55778;54.346;10.210;2022-12-29T03:41:04;10.73;;;7.57;;
68792;SDS011;55778;54.346;10.210;2022-12-29T03:43:33;10.57;;;6.53;;
68792;SDS011;55778;54.346;10.210;2022-12-29T03:45:59;11.95;;;6.57;;
68792;SDS011;55778;54.346;10.210;2022-12-29T03:48:24;9.75;;;6.05;;
68792;SDS011;55778;54.346;10.210;2022-12-29T03:50:50;9.43;;;6.05;;
68792;SDS011;55778;54.346;10.210;2022-12-29T03:53:15;8.48;;;6.05;;
68792;SDS011;55778;54.346;10.210;2022-12-29T03:55:41;7.65;;;4.97;;
68792;SDS011;55778;54.346;10.210;2022-12-29T03:58:06;8.07;;;4.70;;
68792;SDS011;55778;54.346;10.210;2022-12-29T04:00:32;9.10;;;5.22;;
68792;SDS011;55778;54.346;10.210;2022-12-29T04:02:57;6.82;;;4.60;;
68792;SDS011;55778;54.346;10.210;2022-12-29T04:05:22;8.32;;;5.75;;
68792;SDS011;55778;54.346;10.210;2022-12-29T04:07:48;8.35;;;5.20;;
68792;SDS011;55778;54.346;10.210;2022-12-29T04:10:13;8.00;;;5.90;;
68792;SDS011;55778;54.346;10.210;2022-12-29T04:12:39;7.10;;;4.60;;
68792;SDS011;55778;54.346;10.210;2022-12-29T04:15:06;9.15;;;5.10;;
68792;SDS011;55778;54.346;10.210;2022-12-29T04:17:32;9.48;;;5.65;;
68792;SDS011;55778;54.346;10.210;2022-12-29T04:19:58;7.60;;;5.10;;
68792;SDS011;55778;54.346;10.210;2022-12-29T04:22:43;8.95;;;6.22;;
68792;SDS011;55778;54.346;10.210;2022-12-29T04:25:08;10.68;;;5.40;;
68792;SDS011;55778;54.346;10.210;2022-12-29T04:27:34;9.68;;;6.10;;
68792;SDS011;55778;54.346;10.210;2022-12-29T04:29:59;8.50;;;5.18;;
68792;SDS011;55778;54.346;10.210;2022-12-29T04:32:25;8.60;;;5.07;;
68792;SDS011;55778;54.346;10.210;2022-12-29T04:34:50;8.02;;;5.03;;
68792;SDS011;55778;54.346;10.210;2022-12-29T04:37:15;6.90;;;5.32;;
68792;SDS011;55778;54.346;10.210;2022-12-29T04:39:41;10.93;;;6.00;;
68792;SDS011;55778;54.346;10.210;2022-12-29T04:42:06;8.82;;;5.15;;
68792;SDS011;55778;54.346;10.210;2022-12-29T04:44:31;6.68;;;4.47;;
68792;SDS011;55778;54.346;10.210;2022-12-29T04:46:57;8.38;;;5.28;;
68792;SDS011;55778;54.346;10.210;2022-12-29T04:49:22;7.88;;;4.43;;
68792;SDS011;55778;54.346;10.210;2022-12-29T04:51:48;6.95;;;4.95;;
68792;SDS011;55778;54.346;10.210;2022-12-29T04:54:13;8.18;;;5.32;;
68792;SDS011;55778;54.346;10.210;2022-12-29T04:56:39;6.63;;;4.00;;
68792;SDS011;55778;54.346;10.210;2022-12-29T04:59:04;6.32;;;4.55;;
68792;SDS011;55778;54.346;10.210;2022-12-29T05:01:30;8.48;;;5.93;;
68792;SDS011;55778;54.346;10.210;2022-12-29T05:03:55;6.88;;;5.00;;
68792;SDS011;55778;54.346;10.210;2022-12-29T05:06:20;4.97;;;4.07;;
68792;SDS011;55778;54.346;10.210;2022-12-29T05:08:46;7.32;;;4.45;;
68792;SDS011;55778;54.346;10.210;2022-12-29T05:11:11;7.68;;;4.85;;
68792;SDS011;55778;54.346;10.210;2022-12-29T05:13:37;7.32;;;5.07;;
68792;SDS011;55778;54.346;10.210;2022-12-29T05:16:02;6.13;;;4.28;;
68792;SDS011;55778;54.346;10.210;2022-12-29T05:18:28;6.70;;;3.80;;
68792;SDS011;55778;54.346;10.210;2022-12-29T05:20:53;6.25;;;4.07;;
68792;SDS011;55778;54.346;10.210;2022-12-29T05:23:21;6.90;;;4.20;;
68792;SDS011;55778;54.346;10.210;2022-12-29T05:25:50;6.03;;;4.25;;
68792;SDS011;55778;54.346;10.210;2022-12-29T05:28:15;7.97;;;5.22;;
68792;SDS011;55778;54.346;10.210;2022-12-29T05:30:41;7.35;;;5.28;;
68792;SDS011;55778;54.346;10.210;2022-12-29T05:33:06;6.47;;;3.88;;
68792;SDS011;55778;54.346;10.210;2022-12-29T05:35:32;6.78;;;3.83;;
68792;SDS011;55778;54.346;10.210;2022-12-29T05:37:58;6.95;;;4.65;;
68792;SDS011;55778;54.346;10.210;2022-12-29T05:40:23;6.65;;;5.65;;
68792;SDS011;55778;54.346;10.210;2022-12-29T05:42:49;6.82;;;4.57;;
68792;SDS011;55778;54.346;10.210;2022-12-29T05:45:14;7.28;;;4.63;;
68792;SDS011;55778;54.346;10.210;2022-12-29T05:47:39;6.57;;;4.35;;
68792;SDS011;55778;54.346;10.210;2022-12-29T05:50:05;6.10;;;4.30;;
68792;SDS011;55778;54.346;10.210;2022-12-29T05:52:31;5.70;;;3.75;;
68792;SDS011;55778;54.346;10.210;2022-12-29T05:54:56;6.72;;;4.25;;
68792;SDS011;55778;54.346;10.210;2022-12-29T05:57:21;4.95;;;3.60;;
68792;SDS011;55778;54.346;10.210;2022-12-29T05:59:47;5.05;;;3.42;;
68792;SDS011;55778;54.346;10.210;2022-12-29T06:02:12;5.13;;;3.70;;
68792;SDS011;55778;54.346;10.210;2022-12-29T06:04:37;5.47;;;3.75;;
68792;SDS011;55778;54.346;10.210;2022-12-29T06:07:03;4.72;;;3.03;;
68792;SDS011;55778;54.346;10.210;2022-12-29T06:09:28;5.38;;;3.83;;
68792;SDS011;55778;54.346;10.210;2022-12-29T06:11:53;3.80;;;2.80;;
68792;SDS011;55778;54.346;10.210;2022-12-29T06:14:19;3.40;;;2.45;;
68792;SDS011;55778;54.346;10.210;2022-12-29T06:16:45;3.83;;;2.38;;
68792;SDS011;55778;54.346;10.210;2022-12-29T06:19:10;4.00;;;2.83;;
68792;SDS011;55778;54.346;10.210;2022-12-29T06:21:36;3.97;;;2.50;;
68792;SDS011;55778;54.346;10.210;2022-12-29T06:24:02;4.22;;;2.90;;
68792;SDS011;55778;54.346;10.210;2022-12-29T06:26:28;3.85;;;2.83;;
68792;SDS011;55778;54.346;10.210;2022-12-29T06:28:54;3.50;;;2.20;;
68792;SDS011;55778;54.346;10.210;2022-12-29T06:31:20;3.97;;;2.55;;
68792;SDS011;55778;54.346;10.210;2022-12-29T06:33:45;3.00;;;2.22;;
68792;SDS011;55778;54.346;10.210;2022-12-29T06:36:11;3.85;;;2.50;;
68792;SDS011;55778;54.346;10.210;2022-12-29T06:38:36;3.22;;;2.30;;
68792;SDS011;55778;54.346;10.210;2022-12-29T06:41:02;3.28;;;2.65;;
68792;SDS011;55778;54.346;10.210;2022-12-29T06:43:27;3.72;;;2.70;;
68792;SDS011;55778;54.346;10.210;2022-12-29T06:45:53;3.58;;;1.98;;
68792;SDS011;55778;54.346;10.210;2022-12-29T06:48:18;3.33;;;2.40;;
68792;SDS011;55778;54.346;10.210;2022-12-29T06:50:44;5.82;;;2.22;;
68792;SDS011;55778;54.346;10.210;2022-12-29T06:53:09;3.55;;;2.45;;
68792;SDS011;55778;54.346;10.210;2022-12-29T06:55:34;3.60;;;2.08;;
68792;SDS011;55778;54.346;10.210;2022-12-29T06:58:00;4.75;;;2.83;;
68792;SDS011;55778;54.346;10.210;2022-12-29T07:00:26;3.38;;;2.70;;
68792;SDS011;55778;54.346;10.210;2022-12-29T07:02:51;2.50;;;1.90;;
68792;SDS011;55778;54.346;10.210;2022-12-29T07:08:49;4.85;;;2.60;;
68792;SDS011;55778;54.346;10.210;2022-12-29T07:11:15;4.75;;;2.85;;
68792;SDS011;55778;54.346;10.210;2022-12-29T07:13:40;4.65;;;2.55;;
68792;SDS011;55778;54.346;10.210;2022-12-29T07:16:06;4.13;;;2.15;;
68792;SDS011;55778;54.346;10.210;2022-12-29T07:18:32;4.45;;;2.78;;
68792;SDS011;55778;54.346;10.210;2022-12-29T07:20:58;3.58;;;2.55;;
68792;SDS011;55778;54.346;10.210;2022-12-29T07:23:23;3.67;;;2.92;;
68792;SDS011;55778;54.346;10.210;2022-12-29T07:25:49;4.60;;;3.10;;
68792;SDS011;55778;54.346;10.210;2022-12-29T07:28:14;3.47;;;2.45;;
68792;SDS011;55778;54.346;10.210;2022-12-29T07:30:39;3.78;;;2.20;;
68792;SDS011;55778;54.346;10.210;2022-12-29T07:33:05;2.85;;;2.22;;
68792;SDS011;55778;54.346;10.210;2022-12-29T07:35:31;2.33;;;1.63;;
68792;SDS011;55778;54.346;10.210;2022-12-29T07:37:56;4.03;;;2.10;;
68792;SDS011;55778;54.346;10.210;2022-12-29T07:40:21;3.78;;;2.03;;
68792;SDS011;55778;54.346;10.210;2022-12-29T07:42:47;3.17;;;1.77;;
68792;SDS011;55778;54.346;10.210;2022-12-29T07:45:12;4.25;;;2.17;;
68792;SDS011;55778;54.346;10.210;2022-12-29T07:47:38;2.72;;;1.58;;
68792;SDS011;55778;54.346;10.210;2022-12-29T07:50:03;3.88;;;1.98;;
68792;SDS011;55778;54.346;10.210;2022-12-29T07:52:29;2.75;;;1.75;;
68792;SDS011;55778;54.346;10.210;2022-12-29T07:54:55;2.38;;;1.45;;
68792;SDS011;55778;54.346;10.210;2022-12-29T07:57:20;4.53;;;1.70;;
68792;SDS011;55778;54.346;10.210;2022-12-29T07:59:45;2.30;;;1.67;;
68792;SDS011;55778;54.346;10.210;2022-12-29T08:02:11;2.33;;;1.48;;
68792;SDS011;55778;54.346;10.210;2022-12-29T08:04:36;3.72;;;1.45;;
68792;SDS011;55778;54.346;10.210;2022-12-29T08:07:02;1.90;;;1.42;;
68792;SDS011;55778;54.346;10.210;2022-12-29T08:09:27;3.03;;;1.55;;
68792;SDS011;55778;54.346;10.210;2022-12-29T08:11:53;4.53;;;1.13;;
68792;SDS011;55778;54.346;10.210;2022-12-29T08:14:19;3.22;;;1.58;;
68792;SDS011;55778;54.346;10.210;2022-12-29T08:16:44;2.78;;;1.50;;
68792;SDS011;55778;54.346;10.210;2022-12-29T08:19:10;3.28;;;1.38;;
68792;SDS011;55778;54.346;10.210;2022-12-29T08:21:36;2.65;;;1.00;;
68792;SDS011;55778;54.346;10.210;2022-12-29T08:24:02;2.83;;;0.90;;
68792;SDS011;55778;54.346;10.210;2022-12-29T08:26:28;2.05;;;0.90;;
68792;SDS011;55778;54.346;10.210;2022-12-29T08:28:53;4.00;;;1.00;;
68792;SDS011;55778;54.346;10.210;2022-12-29T08:31:20;3.58;;;1.05;;
68792;SDS011;55778;54.346;10.210;2022-12-29T08:33:46;5.50;;;1.65;;
68792;SDS011;55778;54.346;10.210;2022-12-29T08:36:12;1.48;;;0.80;;
68792;SDS011;55778;54.346;10.210;2022-12-29T08:38:37;3.72;;;0.85;;
68792;SDS011;55778;54.346;10.210;2022-12-29T08:41:02;3.92;;;1.25;;
68792;SDS011;55778;54.346;10.210;2022-12-29T08:43:28;5.53;;;1.00;;
68792;SDS011;55778;54.346;10.210;2022-12-29T08:45:54;3.15;;;1.30;;
68792;SDS011;55778;54.346;10.210;2022-12-29T08:48:19;2.25;;;0.90;;
68792;SDS011;55778;54.346;10.210;2022-12-29T08:50:47;1.10;;;0.90;;
68792;SDS011;55778;54.346;10.210;2022-12-29T08:53:13;2.47;;;1.15;;
68792;SDS011;55778;54.346;10.210;2022-12-29T08:55:39;4.15;;;1.30;;
68792;SDS011;55778;54.346;10.210;2022-12-29T08:58:04;4.35;;;0.88;;
68792;SDS011;55778;54.346;10.210;2022-12-29T09:00:30;2.15;;;0.80;;
68792;SDS011;55778;54.346;10.210;2022-12-29T09:02:55;2.97;;;0.85;;
68792;SDS011;55778;54.346;10.210;2022-12-29T09:05:20;1.58;;;0.90;;
68792;SDS011;55778;54.346;10.210;2022-12-29T09:07:46;3.03;;;1.10;;
68792;SDS011;55778;54.346;10.210;2022-12-29T09:10:11;1.95;;;1.13;;
68792;SDS011;55778;54.346;10.210;2022-12-29T09:12:36;4.85;;;1.13;;
68792;SDS011;55778;54.346;10.210;2022-12-29T09:15:02;1.52;;;0.80;;
68792;SDS011;55778;54.346;10.210;2022-12-29T09:17:28;2.75;;;1.00;;
68792;SDS011;55778;54.346;10.210;2022-12-29T09:20:10;3.63;;;1.55;;
68792;SDS011;55778;54.346;10.210;2022-12-29T09:22:36;2.63;;;1.23;;
68792;SDS011;55778;54.346;10.210;2022-12-29T09:25:02;3.30;;;1.30;;
68792;SDS011;55778;54.346;10.210;2022-12-29T09:27:27;2.95;;;1.30;;
68792;SDS011;55778;54.346;10.210;2022-12-29T09:29:53;2.70;;;1.08;;
68792;SDS011;55778;54.346;10.210;2022-12-29T09:32:18;2.10;;;1.02;;
68792;SDS011;55778;54.346;10.210;2022-12-29T09:34:44;3.97;;;1.08;;
68792;SDS011;55778;54.346;10.210;2022-12-29T09:37:10;5.47;;;1.48;;
68792;SDS011;55778;54.346;10.210;2022-12-29T09:39:35;4.57;;;1.02;;
68792;SDS011;55778;54.346;10.210;2022-12-29T09:44:51;4.45;;;1.25;;
68792;SDS011;55778;54.346;10.210;2022-12-29T09:47:38;4.80;;;1.15;;
68792;SDS011;55778;54.346;10.210;2022-12-29T09:53:07;2.45;;;0.80;;
68792;SDS011;55778;54.346;10.210;2022-12-29T09:55:44;13.68;;;1.85;;
68792;SDS011;55778;54.346;10.210;2022-12-29T09:58:47;2.28;;;0.80;;
68792;SDS011;55778;54.346;10.210;2022-12-29T10:01:13;2.33;;;1.00;;
68792;SDS011;55778;54.346;10.210;2022-12-29T10:03:52;4.80;;;0.88;;
68792;SDS011;55778;54.346;10.210;2022-12-29T10:06:24;7.03;;;1.38;;
68792;SDS011;55778;54.346;10.210;2022-12-29T10:08:57;2.72;;;1.05;;
68792;SDS011;55778;54.346;10.210;2022-12-29T10:11:46;6.15;;;1.17;;
68792;SDS011;55778;54.346;10.210;2022-12-29T10:14:35;6.15;;;1.30;;
68792;SDS011;55778;54.346;10.210;2022-12-29T10:22:40;3.50;;;0.93;;
68792;SDS011;55778;54.346;10.210;2022-12-29T10:25:24;3.17;;;0.80;;
68792;SDS011;55778;54.346;10.210;2022-12-29T10:27:51;6.70;;;1.05;;
68792;SDS011;55778;54.346;10.210;2022-12-29T10:30:21;4.40;;;0.70;;
68792;SDS011;55778;54.346;10.210;2022-12-29T10:32:54;4.22;;;0.85;;
68792;SDS011;55778;54.346;10.210;2022-12-29T10:35:30;5.82;;;1.00;;
68792;SDS011;55778;54.346;10.210;2022-12-29T10:38:15;3.17;;;0.80;;
68792;SDS011;55778;54.346;10.210;2022-12-29T10:43:51;6.53;;;1.55;;
68792;SDS011;55778;54.346;10.210;2022-12-29T10:46:20;4.97;;;0.77;;
68792;SDS011;55778;54.346;10.210;2022-12-29T10:48:49;3.40;;;1.00;;
68792;SDS011;55778;54.346;10.210;2022-12-29T10:51:24;2.85;;;1.10;;
68792;SDS011;55778;54.346;10.210;2022-12-29T10:53:53;5.65;;;1.13;;
68792;SDS011;55778;54.346;10.210;2022-12-29T10:58:58;4.97;;;0.90;;
68792;SDS011;55778;54.346;10.210;2022-12-29T11:01:33;3.50;;;0.93;;
68792;SDS011;55778;54.346;10.210;2022-12-29T11:04:26;3.58;;;0.98;;
68792;SDS011;55778;54.346;10.210;2022-12-29T11:06:55;4.03;;;1.20;;
68792;SDS011;55778;54.346;10.210;2022-12-29T11:09:32;2.85;;;0.73;;
68792;SDS011;55778;54.346;10.210;2022-12-29T11:12:03;2.05;;;0.73;;
68792;SDS011;55778;54.346;10.210;2022-12-29T11:17:42;1.10;;;0.60;;
68792;SDS011;55778;54.346;10.210;2022-12-29T11:22:54;3.85;;;1.00;;
68792;SDS011;55778;54.346;10.210;2022-12-29T11:25:20;2.15;;;0.70;;
68792;SDS011;55778;54.346;10.210;2022-12-29T11:30:40;5.05;;;1.15;;
68792;SDS011;55778;54.346;10.210;2022-12-29T11:33:07;3.92;;;0.82;;
68792;SDS011;55778;54.346;10.210;2022-12-29T11:38:16;6.07;;;1.23;;
68792;SDS011;55778;54.346;10.210;2022-12-29T11:40:48;5.22;;;1.00;;
68792;SDS011;55778;54.346;10.210;2022-12-29T11:43:26;5.85;;;1.17;;
68792;SDS011;55778;54.346;10.210;2022-12-29T11:46:00;5.40;;;0.90;;
68792;SDS011;55778;54.346;10.210;2022-12-29T11:48:29;2.42;;;0.80;;
68792;SDS011;55778;54.346;10.210;2022-12-29T11:51:04;3.60;;;0.90;;
68792;SDS011;55778;54.346;10.210;2022-12-29T11:56:06;4.15;;;1.10;;
68792;SDS011;55778;54.346;10.210;2022-12-29T11:58:38;4.75;;;0.70;;
68792;SDS011;55778;54.346;10.210;2022-12-29T12:01:11;10.18;;;1.63;;
68792;SDS011;55778;54.346;10.210;2022-12-29T12:03:40;5.15;;;1.30;;
68792;SDS011;55778;54.346;10.210;2022-12-29T12:06:19;6.20;;;1.08;;
68792;SDS011;55778;54.346;10.210;2022-12-29T12:08:53;5.63;;;1.45;;
68792;SDS011;55778;54.346;10.210;2022-12-29T12:11:22;5.22;;;1.15;;
68792;SDS011;55778;54.346;10.210;2022-12-29T12:16:36;6.82;;;1.27;;
68792;SDS011;55778;54.346;10.210;2022-12-29T12:19:12;1.63;;;0.70;;
68792;SDS011;55778;54.346;10.210;2022-12-29T12:21:46;4.70;;;0.90;;
68792;SDS011;55778;54.346;10.210;2022-12-29T12:24:28;2.67;;;0.90;;
68792;SDS011;55778;54.346;10.210;2022-12-29T12:27:19;5.00;;;1.00;;
68792;SDS011;55778;54.346;10.210;2022-12-29T12:30:36;8.25;;;1.40;;
68792;SDS011;55778;54.346;10.210;2022-12-29T12:32:52;4.45;;;1.20;;
68792;SDS011;55778;54.346;10.210;2022-12-29T12:38:14;6.45;;;1.75;;
68792;SDS011;55778;54.346;10.210;2022-12-29T12:49:16;3.55;;;1.10;;
68792;SDS011;55778;54.346;10.210;2022-12-29T12:58:18;10.70;;;1.33;;
68792;SDS011;55778;54.346;10.210;2022-12-29T13:01:03;2.20;;;1.08;;
68792;SDS011;55778;54.346;10.210;2022-12-29T13:03:49;11.80;;;1.35;;
68792;SDS011;55778;54.346;10.210;2022-12-29T13:06:37;3.63;;;1.42;;
68792;SDS011;55778;54.346;10.210;2022-12-29T13:14:52;3.53;;;1.10;;
68792;SDS011;55778;54.346;10.210;2022-12-29T13:17:25;2.42;;;0.68;;
68792;SDS011;55778;54.346;10.210;2022-12-29T13:25:42;5.53;;;1.00;;
68792;SDS011;55778;54.346;10.210;2022-12-29T13:28:24;8.52;;;1.65;;
68792;SDS011;55778;54.346;10.210;2022-12-29T13:36:23;4.70;;;1.15;;
68792;SDS011;55778;54.346;10.210;2022-12-29T13:39:01;3.65;;;1.50;;
68792;SDS011;55778;54.346;10.210;2022-12-29T13:41:30;4.78;;;1.02;;
68792;SDS011;55778;54.346;10.210;2022-12-29T13:44:00;2.53;;;1.00;;
68792;SDS011;55778;54.346;10.210;2022-12-29T13:46:29;2.35;;;1.00;;
68792;SDS011;55778;54.346;10.210;2022-12-29T13:49:02;7.57;;;1.42;;
68792;SDS011;55778;54.346;10.210;2022-12-29T13:51:34;4.53;;;1.00;;
68792;SDS011;55778;54.346;10.210;2022-12-29T13:56:40;2.45;;;1.10;;
68792;SDS011;55778;54.346;10.210;2022-12-29T14:02:07;6.10;;;1.17;;
68792;SDS011;55778;54.346;10.210;2022-12-29T14:07:43;5.82;;;1.48;;
68792;SDS011;55778;54.346;10.210;2022-12-29T14:13:14;4.22;;;1.38;;
68792;SDS011;55778;54.346;10.210;2022-12-29T14:15:44;3.75;;;1.08;;
68792;SDS011;55778;54.346;10.210;2022-12-29T14:18:23;7.82;;;1.30;;
68792;SDS011;55778;54.346;10.210;2022-12-29T14:26:00;5.00;;;1.30;;
68792;SDS011;55778;54.346;10.210;2022-12-29T14:28:39;7.18;;;1.50;;
68792;SDS011;55778;54.346;10.210;2022-12-29T14:36:34;6.72;;;1.67;;
68792;SDS011;55778;54.346;10.210;2022-12-29T14:39:01;8.85;;;1.73;;
68792;SDS011;55778;54.346;10.210;2022-12-29T14:41:40;8.73;;;1.80;;
68792;SDS011;55778;54.346;10.210;2022-12-29T14:49:20;7.35;;;1.30;;
68792;SDS011;55778;54.346;10.210;2022-12-29T14:51:48;5.60;;;1.67;;
68792;SDS011;55778;54.346;10.210;2022-12-29T14:57:01;6.82;;;1.80;;
68792;SDS011;55778;54.346;10.210;2022-12-29T14:59:29;8.93;;;1.63;;
68792;SDS011;55778;54.346;10.210;2022-12-29T15:01:57;6.93;;;1.50;;
68792;SDS011;55778;54.346;10.210;2022-12-29T15:04:25;5.80;;;1.42;;
68792;SDS011;55778;54.346;10.210;2022-12-29T15:06:56;8.00;;;1.52;;
68792;SDS011;55778;54.346;10.210;2022-12-29T15:09:24;8.18;;;1.58;;
68792;SDS011;55778;54.346;10.210;2022-12-29T15:12:00;5.07;;;1.70;;
68792;SDS011;55778;54.346;10.210;2022-12-29T15:14:31;5.63;;;1.25;;
68792;SDS011;55778;54.346;10.210;2022-12-29T15:17:37;6.45;;;1.73;;
68792;SDS011;55778;54.346;10.210;2022-12-29T15:19:59;6.22;;;1.40;;
68792;SDS011;55778;54.346;10.210;2022-12-29T15:22:47;6.75;;;1.38;;
68792;SDS011;55778;54.346;10.210;2022-12-29T15:25:16;6.70;;;1.40;;
68792;SDS011;55778;54.346;10.210;2022-12-29T15:27:43;8.00;;;1.40;;
68792;SDS011;55778;54.346;10.210;2022-12-29T15:30:15;8.20;;;1.60;;
68792;SDS011;55778;54.346;10.210;2022-12-29T15:32:43;6.60;;;1.70;;
68792;SDS011;55778;54.346;10.210;2022-12-29T15:37:58;8.73;;;1.70;;
68792;SDS011;55778;54.346;10.210;2022-12-29T15:40:28;7.13;;;1.33;;
68792;SDS011;55778;54.346;10.210;2022-12-29T15:42:58;15.00;;;1.50;;
68792;SDS011;55778;54.346;10.210;2022-12-29T15:45:32;8.20;;;1.60;;
68792;SDS011;55778;54.346;10.210;2022-12-29T15:47:59;6.38;;;1.75;;
68792;SDS011;55778;54.346;10.210;2022-12-29T15:50:29;6.13;;;1.15;;
68792;SDS011;55778;54.346;10.210;2022-12-29T15:52:56;5.28;;;1.08;;
68792;SDS011;55778;54.346;10.210;2022-12-29T15:55:36;7.07;;;1.40;;
68792;SDS011;55778;54.346;10.210;2022-12-29T15:58:04;6.20;;;1.45;;
68792;SDS011;55778;54.346;10.210;2022-12-29T16:00:55;8.70;;;1.95;;
68792;SDS011;55778;54.346;10.210;2022-12-29T16:03:24;3.22;;;1.27;;
68792;SDS011;55778;54.346;10.210;2022-12-29T16:05:53;14.63;;;1.58;;
68792;SDS011;55778;54.346;10.210;2022-12-29T16:08:35;5.97;;;1.25;;
68792;SDS011;55778;54.346;10.210;2022-12-29T16:11:22;7.80;;;1.50;;
68792;SDS011;55778;54.346;10.210;2022-12-29T16:13:52;9.65;;;1.95;;
68792;SDS011;55778;54.346;10.210;2022-12-29T16:16:32;6.78;;;1.70;;
68792;SDS011;55778;54.346;10.210;2022-12-29T16:19:03;9.40;;;1.13;;
68792;SDS011;55778;54.346;10.210;2022-12-29T16:21:37;6.72;;;1.63;;
68792;SDS011;55778;54.346;10.210;2022-12-29T16:24:07;7.03;;;1.45;;
68792;SDS011;55778;54.346;10.210;2022-12-29T16:26:38;7.00;;;1.90;;
68792;SDS011;55778;54.346;10.210;2022-12-29T16:29:05;5.53;;;1.35;;
68792;SDS011;55778;54.346;10.210;2022-12-29T16:31:36;2.95;;;1.13;;
68792;SDS011;55778;54.346;10.210;2022-12-29T16:34:33;10.45;;;1.75;;
68792;SDS011;55778;54.346;10.210;2022-12-29T16:37:29;6.18;;;2.08;;
68792;SDS011;55778;54.346;10.210;2022-12-29T16:39:56;5.28;;;1.33;;
68792;SDS011;55778;54.346;10.210;2022-12-29T16:43:02;8.27;;;1.60;;
68792;SDS011;55778;54.346;10.210;2022-12-29T16:50:38;4.45;;;1.38;;
68792;SDS011;55778;54.346;10.210;2022-12-29T16:53:06;6.35;;;1.42;;
68792;SDS011;55778;54.346;10.210;2022-12-29T16:55:47;6.47;;;1.38;;
68792;SDS011;55778;54.346;10.210;2022-12-29T16:58:24;9.20;;;1.70;;
68792;SDS011;55778;54.346;10.210;2022-12-29T17:00:54;6.25;;;1.13;;
68792;SDS011;55778;54.346;10.210;2022-12-29T17:03:21;9.27;;;1.80;;
68792;SDS011;55778;54.346;10.210;2022-12-29T17:05:48;3.42;;;0.90;;
68792;SDS011;55778;54.346;10.210;2022-12-29T17:08:17;6.82;;;2.03;;
68792;SDS011;55778;54.346;10.210;2022-12-29T17:10:51;10.75;;;2.75;;
68792;SDS011;55778;54.346;10.210;2022-12-29T17:13:36;5.95;;;1.70;;